sensor_id;sensor_type;location;lat;lon;timestamp;temperature;humidity
67050;DHT22;53955;52.442;13.284;2023-05-10T00:00:03;16.10;31.20
67050;DHT22;53955;52.442;13.284;2023-05-10T00:02:30;16.10;31.60
67050;DHT22;53955;52.442;13.284;2023-05-10T00:04:56;16.10;30.80
67050;DHT22;53955;52.442;13.284;2023-05-10T00:07:23;15.90;31.50
67050;DHT22;53955;52.442;13.284;2023-05-10T00:09:50;15.90;32.30
67050;DHT22;53955;52.442;13.284;2023-05-10T00:12:17;16.00;32.50
67050;DHT22;53955;52.442;13.284;2023-05-10T00:14:44;16.00;32.00
67050;DHT22;53955;52.442;13.284;2023-05-10T00:17:11;15.80;31.80
67050;DHT22;53955;52.442;13.284;2023-05-10T00:19:38;15.70;32.30
67050;DHT22;53955;52.442;13.284;2023-05-10T00:22:04;15.70;32.80
67050;DHT22;53955;52.442;13.284;2023-05-10T00:24:31;15.80;32.70
67050;DHT22;53955;52.442;13.284;2023-05-10T00:26:57;15.80;32.50
67050;DHT22;53955;52.442;13.284;2023-05-10T00:29:24;15.80;32.30
67050;DHT22;53955;52.442;13.284;2023-05-10T00:31:52;15.70;32.50
67050;DHT22;53955;52.442;13.284;2023-05-10T00:34:18;15.70;32.30
67050;DHT22;53955;52.442;13.284;2023-05-10T00:36:45;15.60;32.10
67050;DHT22;53955;52.442;13.284;2023-05-10T00:39:12;15.60;33.00
67050;DHT22;53955;52.442;13.284;2023-05-10T00:41:38;15.60;32.30
67050;DHT22;53955;52.442;13.284;2023-05-10T00:44:05;15.60;32.80
67050;DHT22;53955;52.442;13.284;2023-05-10T00:46:32;15.40;32.70
67050;DHT22;53955;52.442;13.284;2023-05-10T00:49:00;15.40;34.10
67050;DHT22;53955;52.442;13.284;2023-05-10T00:51:27;15.40;34.60
67050;DHT22;53955;52.442;13.284;2023-05-10T00:53:53;15.50;32.90
67050;DHT22;53955;52.442;13.284;2023-05-10T00:56:21;15.50;33.50
67050;DHT22;53955;52.442;13.284;2023-05-10T00:58:50;15.50;33.40
67050;DHT22;53955;52.442;13.284;2023-05-10T01:01:16;15.50;33.00
67050;DHT22;53955;52.442;13.284;2023-05-10T01:03:43;15.60;33.00
67050;DHT22;53955;52.442;13.284;2023-05-10T01:06:12;15.40;34.20
67050;DHT22;53955;52.442;13.284;2023-05-10T01:08:39;15.30;34.90
67050;DHT22;53955;52.442;13.284;2023-05-10T01:11:06;15.20;34.20
67050;DHT22;53955;52.442;13.284;2023-05-10T01:13:34;15.10;34.80
67050;DHT22;53955;52.442;13.284;2023-05-10T01:16:01;15.20;34.40
67050;DHT22;53955;52.442;13.284;2023-05-10T01:18:29;15.20;34.20
67050;DHT22;53955;52.442;13.284;2023-05-10T01:21:04;15.30;34.50
67050;DHT22;53955;52.442;13.284;2023-05-10T01:23:45;15.10;34.60
67050;DHT22;53955;52.442;13.284;2023-05-10T01:26:45;15.00;35.30
67050;DHT22;53955;52.442;13.284;2023-05-10T01:29:29;15.00;35.50
67050;DHT22;53955;52.442;13.284;2023-05-10T01:32:14;15.00;35.70
67050;DHT22;53955;52.442;13.284;2023-05-10T01:34:50;15.10;34.90
67050;DHT22;53955;52.442;13.284;2023-05-10T01:37:22;15.10;35.10
67050;DHT22;53955;52.442;13.284;2023-05-10T01:40:00;15.20;34.70
67050;DHT22;53955;52.442;13.284;2023-05-10T01:42:32;15.10;35.10
67050;DHT22;53955;52.442;13.284;2023-05-10T01:45:07;15.20;34.80
67050;DHT22;53955;52.442;13.284;2023-05-10T01:47:41;15.00;35.60
67050;DHT22;53955;52.442;13.284;2023-05-10T01:50:13;15.10;34.80
67050;DHT22;53955;52.442;13.284;2023-05-10T01:52:42;15.10;35.10
67050;DHT22;53955;52.442;13.284;2023-05-10T01:55:14;15.10;34.20
67050;DHT22;53955;52.442;13.284;2023-05-10T01:57:44;15.00;35.30
67050;DHT22;53955;52.442;13.284;2023-05-10T02:00:12;15.00;35.00
67050;DHT22;53955;52.442;13.284;2023-05-10T02:02:44;14.90;35.50
67050;DHT22;53955;52.442;13.284;2023-05-10T02:05:13;14.80;35.80
67050;DHT22;53955;52.442;13.284;2023-05-10T02:07:41;15.00;35.90
67050;DHT22;53955;52.442;13.284;2023-05-10T02:10:09;14.90;35.10
67050;DHT22;53955;52.442;13.284;2023-05-10T02:12:41;14.60;36.70
67050;DHT22;53955;52.442;13.284;2023-05-10T02:15:10;14.70;36.20
67050;DHT22;53955;52.442;13.284;2023-05-10T02:17:38;14.50;36.50
67050;DHT22;53955;52.442;13.284;2023-05-10T02:20:08;14.60;36.00
67050;DHT22;53955;52.442;13.284;2023-05-10T02:22:36;14.60;36.90
67050;DHT22;53955;52.442;13.284;2023-05-10T02:25:04;14.50;36.50
67050;DHT22;53955;52.442;13.284;2023-05-10T02:27:33;14.60;36.70
67050;DHT22;53955;52.442;13.284;2023-05-10T02:30:01;14.40;37.30
67050;DHT22;53955;52.442;13.284;2023-05-10T02:32:28;14.40;38.10
67050;DHT22;53955;52.442;13.284;2023-05-10T02:34:56;14.60;37.60
67050;DHT22;53955;52.442;13.284;2023-05-10T02:37:25;14.50;37.40
67050;DHT22;53955;52.442;13.284;2023-05-10T02:39:55;14.50;37.30
67050;DHT22;53955;52.442;13.284;2023-05-10T02:42:25;14.50;37.20
67050;DHT22;53955;52.442;13.284;2023-05-10T02:44:54;14.30;37.70
67050;DHT22;53955;52.442;13.284;2023-05-10T02:47:21;14.40;38.00
67050;DHT22;53955;52.442;13.284;2023-05-10T02:49:48;14.30;37.80
67050;DHT22;53955;52.442;13.284;2023-05-10T02:52:18;14.40;38.60
67050;DHT22;53955;52.442;13.284;2023-05-10T02:54:50;14.30;38.10
67050;DHT22;53955;52.442;13.284;2023-05-10T02:57:25;14.40;38.20
67050;DHT22;53955;52.442;13.284;2023-05-10T02:59:52;14.30;38.00
67050;DHT22;53955;52.442;13.284;2023-05-10T03:02:20;14.30;37.80
67050;DHT22;53955;52.442;13.284;2023-05-10T03:04:47;14.30;38.40
67050;DHT22;53955;52.442;13.284;2023-05-10T03:07:13;14.30;38.70
67050;DHT22;53955;52.442;13.284;2023-05-10T03:09:40;14.20;38.80
67050;DHT22;53955;52.442;13.284;2023-05-10T03:12:13;14.30;39.00
67050;DHT22;53955;52.442;13.284;2023-05-10T03:14:48;14.40;39.00
67050;DHT22;53955;52.442;13.284;2023-05-10T03:17:22;14.30;39.20
67050;DHT22;53955;52.442;13.284;2023-05-10T03:19:53;14.30;38.30
67050;DHT22;53955;52.442;13.284;2023-05-10T03:22:24;14.20;38.60
67050;DHT22;53955;52.442;13.284;2023-05-10T03:24:54;14.20;39.00
67050;DHT22;53955;52.442;13.284;2023-05-10T03:27:23;14.20;38.70
67050;DHT22;53955;52.442;13.284;2023-05-10T03:29:51;14.20;38.40
67050;DHT22;53955;52.442;13.284;2023-05-10T03:32:19;14.20;38.90
67050;DHT22;53955;52.442;13.284;2023-05-10T03:34:45;14.30;38.90
67050;DHT22;53955;52.442;13.284;2023-05-10T03:37:12;14.30;38.20
67050;DHT22;53955;52.442;13.284;2023-05-10T03:39:38;14.20;39.10
67050;DHT22;53955;52.442;13.284;2023-05-10T03:42:05;14.10;38.50
67050;DHT22;53955;52.442;13.284;2023-05-10T03:44:33;14.20;38.90
67050;DHT22;53955;52.442;13.284;2023-05-10T03:46:59;14.20;39.10
67050;DHT22;53955;52.442;13.284;2023-05-10T03:49:26;14.10;39.10
67050;DHT22;53955;52.442;13.284;2023-05-10T03:51:53;14.20;39.20
67050;DHT22;53955;52.442;13.284;2023-05-10T03:54:19;14.10;38.60
67050;DHT22;53955;52.442;13.284;2023-05-10T03:56:46;14.10;39.00
67050;DHT22;53955;52.442;13.284;2023-05-10T03:59:13;14.10;38.20
67050;DHT22;53955;52.442;13.284;2023-05-10T04:01:41;14.20;38.80
67050;DHT22;53955;52.442;13.284;2023-05-10T04:04:07;14.20;39.10
67050;DHT22;53955;52.442;13.284;2023-05-10T04:06:34;14.00;38.70
67050;DHT22;53955;52.442;13.284;2023-05-10T04:09:00;14.00;39.00
67050;DHT22;53955;52.442;13.284;2023-05-10T04:11:29;13.90;39.50
67050;DHT22;53955;52.442;13.284;2023-05-10T04:13:56;13.80;39.20
67050;DHT22;53955;52.442;13.284;2023-05-10T04:16:23;13.70;39.60
67050;DHT22;53955;52.442;13.284;2023-05-10T04:18:50;13.80;39.50
67050;DHT22;53955;52.442;13.284;2023-05-10T04:21:17;13.80;39.60
67050;DHT22;53955;52.442;13.284;2023-05-10T04:23:44;14.00;39.80
67050;DHT22;53955;52.442;13.284;2023-05-10T04:26:10;14.10;38.80
67050;DHT22;53955;52.442;13.284;2023-05-10T04:28:37;14.20;38.70
67050;DHT22;53955;52.442;13.284;2023-05-10T04:31:04;14.70;38.60
67050;DHT22;53955;52.442;13.284;2023-05-10T04:33:32;15.80;35.00
67050;DHT22;53955;52.442;13.284;2023-05-10T04:36:00;16.40;32.80
67050;DHT22;53955;52.442;13.284;2023-05-10T04:38:27;16.00;32.40
67050;DHT22;53955;52.442;13.284;2023-05-10T04:40:53;15.90;32.60
67050;DHT22;53955;52.442;13.284;2023-05-10T04:43:20;16.00;33.20
67050;DHT22;53955;52.442;13.284;2023-05-10T04:45:47;15.90;33.60
67050;DHT22;53955;52.442;13.284;2023-05-10T04:48:13;15.70;33.30
67050;DHT22;53955;52.442;13.284;2023-05-10T04:50:40;16.20;33.30
67050;DHT22;53955;52.442;13.284;2023-05-10T04:53:08;17.60;29.70
67050;DHT22;53955;52.442;13.284;2023-05-10T04:55:34;19.40;25.10
67050;DHT22;53955;52.442;13.284;2023-05-10T04:58:01;19.70;24.10
67050;DHT22;53955;52.442;13.284;2023-05-10T05:00:28;19.60;24.60
67050;DHT22;53955;52.442;13.284;2023-05-10T05:02:55;20.10;23.40
67050;DHT22;53955;52.442;13.284;2023-05-10T05:05:21;20.50;23.40
67050;DHT22;53955;52.442;13.284;2023-05-10T05:07:48;21.40;21.50
67050;DHT22;53955;52.442;13.284;2023-05-10T05:10:16;21.40;19.60
67050;DHT22;53955;52.442;13.284;2023-05-10T05:12:42;21.30;20.50
67050;DHT22;53955;52.442;13.284;2023-05-10T05:15:10;21.60;20.10
67050;DHT22;53955;52.442;13.284;2023-05-10T05:17:36;21.20;21.00
67050;DHT22;53955;52.442;13.284;2023-05-10T05:20:04;21.30;21.00
67050;DHT22;53955;52.442;13.284;2023-05-10T05:22:31;22.90;19.00
67050;DHT22;53955;52.442;13.284;2023-05-10T05:24:57;24.70;16.10
67050;DHT22;53955;52.442;13.284;2023-05-10T05:27:25;26.90;13.40
67050;DHT22;53955;52.442;13.284;2023-05-10T05:29:53;28.50;11.40
67050;DHT22;53955;52.442;13.284;2023-05-10T05:32:20;29.60;9.80
67050;DHT22;53955;52.442;13.284;2023-05-10T05:34:47;30.80;9.90
67050;DHT22;53955;52.442;13.284;2023-05-10T05:37:14;32.00;8.10
67050;DHT22;53955;52.442;13.284;2023-05-10T05:39:40;32.30;7.80
67050;DHT22;53955;52.442;13.284;2023-05-10T05:42:08;31.70;7.60
67050;DHT22;53955;52.442;13.284;2023-05-10T05:44:36;31.80;8.20
67050;DHT22;53955;52.442;13.284;2023-05-10T05:47:02;32.70;7.40
67050;DHT22;53955;52.442;13.284;2023-05-10T05:49:30;32.70;7.30
67050;DHT22;53955;52.442;13.284;2023-05-10T05:51:58;33.70;6.90
67050;DHT22;53955;52.442;13.284;2023-05-10T05:54:25;33.70;6.60
67050;DHT22;53955;52.442;13.284;2023-05-10T05:56:53;34.00;6.20
67050;DHT22;53955;52.442;13.284;2023-05-10T05:59:20;33.90;5.70
67050;DHT22;53955;52.442;13.284;2023-05-10T06:01:48;33.30;6.10
67050;DHT22;53955;52.442;13.284;2023-05-10T06:04:15;33.70;5.80
67050;DHT22;53955;52.442;13.284;2023-05-10T06:06:42;34.40;5.30
67050;DHT22;53955;52.442;13.284;2023-05-10T06:09:09;34.30;5.50
67050;DHT22;53955;52.442;13.284;2023-05-10T06:11:36;33.80;5.50
67050;DHT22;53955;52.442;13.284;2023-05-10T06:14:03;34.40;5.30
67050;DHT22;53955;52.442;13.284;2023-05-10T06:16:30;33.20;6.30
67050;DHT22;53955;52.442;13.284;2023-05-10T06:18:58;34.00;5.60
67050;DHT22;53955;52.442;13.284;2023-05-10T06:21:25;35.00;5.40
67050;DHT22;53955;52.442;13.284;2023-05-10T06:23:51;35.10;5.10
67050;DHT22;53955;52.442;13.284;2023-05-10T06:26:18;34.80;4.60
67050;DHT22;53955;52.442;13.284;2023-05-10T06:28:46;33.70;5.10
67050;DHT22;53955;52.442;13.284;2023-05-10T06:31:12;32.10;6.20
67050;DHT22;53955;52.442;13.284;2023-05-10T06:33:39;30.30;7.10
67050;DHT22;53955;52.442;13.284;2023-05-10T06:36:07;28.30;8.10
67050;DHT22;53955;52.442;13.284;2023-05-10T06:38:34;27.30;9.30
67050;DHT22;53955;52.442;13.284;2023-05-10T06:41:00;26.10;10.40
67050;DHT22;53955;52.442;13.284;2023-05-10T06:43:27;25.50;12.00
67050;DHT22;53955;52.442;13.284;2023-05-10T06:45:54;25.10;11.90
67050;DHT22;53955;52.442;13.284;2023-05-10T06:48:21;23.60;13.90
67050;DHT22;53955;52.442;13.284;2023-05-10T06:50:47;23.00;15.00
67050;DHT22;53955;52.442;13.284;2023-05-10T06:53:15;21.60;17.40
67050;DHT22;53955;52.442;13.284;2023-05-10T06:55:42;21.50;18.70
67050;DHT22;53955;52.442;13.284;2023-05-10T06:58:09;21.30;17.80
67050;DHT22;53955;52.442;13.284;2023-05-10T07:00:36;21.10;18.70
67050;DHT22;53955;52.442;13.284;2023-05-10T07:03:05;21.20;18.80
67050;DHT22;53955;52.442;13.284;2023-05-10T07:05:32;21.20;18.90
67050;DHT22;53955;52.442;13.284;2023-05-10T07:07:58;21.40;19.10
67050;DHT22;53955;52.442;13.284;2023-05-10T07:10:26;21.40;18.30
67050;DHT22;53955;52.442;13.284;2023-05-10T07:12:53;21.30;18.80
67050;DHT22;53955;52.442;13.284;2023-05-10T07:15:20;21.50;18.80
67050;DHT22;53955;52.442;13.284;2023-05-10T07:17:46;21.60;18.70
67050;DHT22;53955;52.442;13.284;2023-05-10T07:20:13;21.80;18.50
67050;DHT22;53955;52.442;13.284;2023-05-10T07:22:40;22.00;19.00
67050;DHT22;53955;52.442;13.284;2023-05-10T07:25:07;21.90;18.10
67050;DHT22;53955;52.442;13.284;2023-05-10T07:27:35;21.50;17.70
67050;DHT22;53955;52.442;13.284;2023-05-10T07:30:02;21.30;18.80
67050;DHT22;53955;52.442;13.284;2023-05-10T07:32:28;21.00;19.90
67050;DHT22;53955;52.442;13.284;2023-05-10T07:34:55;20.70;20.10
67050;DHT22;53955;52.442;13.284;2023-05-10T07:37:22;20.80;21.60
67050;DHT22;53955;52.442;13.284;2023-05-10T07:39:49;20.70;21.10
67050;DHT22;53955;52.442;13.284;2023-05-10T07:42:15;20.50;21.00
67050;DHT22;53955;52.442;13.284;2023-05-10T07:44:43;20.50;21.20
67050;DHT22;53955;52.442;13.284;2023-05-10T07:47:10;20.50;21.50
67050;DHT22;53955;52.442;13.284;2023-05-10T07:49:37;20.70;21.20
67050;DHT22;53955;52.442;13.284;2023-05-10T07:52:03;20.60;22.00
67050;DHT22;53955;52.442;13.284;2023-05-10T07:54:30;20.80;21.60
67050;DHT22;53955;52.442;13.284;2023-05-10T07:56:57;20.80;21.70
67050;DHT22;53955;52.442;13.284;2023-05-10T07:59:25;20.60;22.30
67050;DHT22;53955;52.442;13.284;2023-05-10T08:01:53;20.60;22.30
67050;DHT22;53955;52.442;13.284;2023-05-10T08:04:19;20.80;22.50
67050;DHT22;53955;52.442;13.284;2023-05-10T08:06:46;21.20;21.30
67050;DHT22;53955;52.442;13.284;2023-05-10T08:09:13;21.40;19.70
67050;DHT22;53955;52.442;13.284;2023-05-10T08:11:39;21.30;19.80
67050;DHT22;53955;52.442;13.284;2023-05-10T08:14:06;21.10;20.00
67050;DHT22;53955;52.442;13.284;2023-05-10T08:16:33;21.40;19.80
67050;DHT22;53955;52.442;13.284;2023-05-10T08:19:01;21.70;20.20
67050;DHT22;53955;52.442;13.284;2023-05-10T08:21:27;22.00;19.00
67050;DHT22;53955;52.442;13.284;2023-05-10T08:23:54;22.10;20.40
67050;DHT22;53955;52.442;13.284;2023-05-10T08:26:21;22.40;19.80
67050;DHT22;53955;52.442;13.284;2023-05-10T08:28:47;22.30;19.40
67050;DHT22;53955;52.442;13.284;2023-05-10T08:31:14;21.90;19.90
67050;DHT22;53955;52.442;13.284;2023-05-10T08:33:41;22.20;20.40
67050;DHT22;53955;52.442;13.284;2023-05-10T08:36:09;22.40;20.40
67050;DHT22;53955;52.442;13.284;2023-05-10T08:38:37;22.60;19.00
67050;DHT22;53955;52.442;13.284;2023-05-10T08:41:04;22.50;19.10
67050;DHT22;53955;52.442;13.284;2023-05-10T08:43:31;22.50;19.10
67050;DHT22;53955;52.442;13.284;2023-05-10T08:46:00;22.50;19.10
67050;DHT22;53955;52.442;13.284;2023-05-10T08:48:29;22.50;19.20
67050;DHT22;53955;52.442;13.284;2023-05-10T08:50:57;22.40;18.90
67050;DHT22;53955;52.442;13.284;2023-05-10T08:53:27;22.40;19.90
67050;DHT22;53955;52.442;13.284;2023-05-10T08:55:55;22.20;18.90
67050;DHT22;53955;52.442;13.284;2023-05-10T08:58:22;22.20;20.40
67050;DHT22;53955;52.442;13.284;2023-05-10T09:00:49;22.50;20.10
67050;DHT22;53955;52.442;13.284;2023-05-10T09:03:17;21.90;19.70
67050;DHT22;53955;52.442;13.284;2023-05-10T09:05:44;22.20;20.80
67050;DHT22;53955;52.442;13.284;2023-05-10T09:08:11;22.60;19.60
67050;DHT22;53955;52.442;13.284;2023-05-10T09:10:40;22.80;19.50
67050;DHT22;53955;52.442;13.284;2023-05-10T09:13:09;22.60;19.50
67050;DHT22;53955;52.442;13.284;2023-05-10T09:15:36;22.60;19.10
67050;DHT22;53955;52.442;13.284;2023-05-10T09:18:03;22.80;19.90
67050;DHT22;53955;52.442;13.284;2023-05-10T09:20:29;23.00;18.00
67050;DHT22;53955;52.442;13.284;2023-05-10T09:22:56;23.10;19.90
67050;DHT22;53955;52.442;13.284;2023-05-10T09:25:23;23.30;18.70
67050;DHT22;53955;52.442;13.284;2023-05-10T09:27:51;23.50;18.70
67050;DHT22;53955;52.442;13.284;2023-05-10T09:30:23;23.10;18.80
67050;DHT22;53955;52.442;13.284;2023-05-10T09:32:51;23.10;18.50
67050;DHT22;53955;52.442;13.284;2023-05-10T09:35:18;22.90;18.70
67050;DHT22;53955;52.442;13.284;2023-05-10T09:37:46;23.00;20.00
67050;DHT22;53955;52.442;13.284;2023-05-10T09:40:15;23.20;18.30
67050;DHT22;53955;52.442;13.284;2023-05-10T09:42:43;23.00;18.90
67050;DHT22;53955;52.442;13.284;2023-05-10T09:45:18;23.10;19.50
67050;DHT22;53955;52.442;13.284;2023-05-10T09:47:45;23.10;19.80
67050;DHT22;53955;52.442;13.284;2023-05-10T09:50:12;23.10;18.50
67050;DHT22;53955;52.442;13.284;2023-05-10T09:52:47;22.80;19.30
67050;DHT22;53955;52.442;13.284;2023-05-10T09:55:14;22.90;18.90
67050;DHT22;53955;52.442;13.284;2023-05-10T09:57:41;22.90;19.70
67050;DHT22;53955;52.442;13.284;2023-05-10T10:00:08;22.90;19.90
67050;DHT22;53955;52.442;13.284;2023-05-10T10:02:38;23.20;19.60
67050;DHT22;53955;52.442;13.284;2023-05-10T10:05:06;23.30;20.00
67050;DHT22;53955;52.442;13.284;2023-05-10T10:07:33;23.50;20.20
67050;DHT22;53955;52.442;13.284;2023-05-10T10:10:00;23.70;18.70
67050;DHT22;53955;52.442;13.284;2023-05-10T10:12:27;23.80;18.50
67050;DHT22;53955;52.442;13.284;2023-05-10T10:14:55;23.60;18.20
67050;DHT22;53955;52.442;13.284;2023-05-10T10:17:24;23.40;18.80
67050;DHT22;53955;52.442;13.284;2023-05-10T10:19:55;23.30;18.80
67050;DHT22;53955;52.442;13.284;2023-05-10T10:22:23;23.00;19.10
67050;DHT22;53955;52.442;13.284;2023-05-10T10:24:50;23.10;20.20
67050;DHT22;53955;52.442;13.284;2023-05-10T10:27:23;23.30;19.30
67050;DHT22;53955;52.442;13.284;2023-05-10T10:29:59;23.20;18.60
67050;DHT22;53955;52.442;13.284;2023-05-10T10:32:38;23.30;19.70
67050;DHT22;53955;52.442;13.284;2023-05-10T10:35:10;23.50;20.20
67050;DHT22;53955;52.442;13.284;2023-05-10T10:37:46;23.60;19.40
67050;DHT22;53955;52.442;13.284;2023-05-10T10:40:23;23.70;18.80
67050;DHT22;53955;52.442;13.284;2023-05-10T10:42:50;23.90;18.70
67050;DHT22;53955;52.442;13.284;2023-05-10T10:45:17;23.90;18.80
67050;DHT22;53955;52.442;13.284;2023-05-10T10:47:44;24.00;20.10
67050;DHT22;53955;52.442;13.284;2023-05-10T10:50:13;24.00;18.30
67050;DHT22;53955;52.442;13.284;2023-05-10T10:52:42;23.80;18.60
67050;DHT22;53955;52.442;13.284;2023-05-10T10:55:10;23.70;19.10
67050;DHT22;53955;52.442;13.284;2023-05-10T10:57:45;23.60;20.30
67050;DHT22;53955;52.442;13.284;2023-05-10T11:00:21;23.60;20.80
67050;DHT22;53955;52.442;13.284;2023-05-10T11:02:49;23.70;18.30
67050;DHT22;53955;52.442;13.284;2023-05-10T11:05:42;23.70;19.20
67050;DHT22;53955;52.442;13.284;2023-05-10T11:08:17;23.80;19.00
67050;DHT22;53955;52.442;13.284;2023-05-10T11:10:52;23.80;18.00
67050;DHT22;53955;52.442;13.284;2023-05-10T11:13:29;23.60;17.90
67050;DHT22;53955;52.442;13.284;2023-05-10T11:15:56;23.50;17.60
67050;DHT22;53955;52.442;13.284;2023-05-10T11:18:25;23.40;18.30
67050;DHT22;53955;52.442;13.284;2023-05-10T11:20:56;23.50;19.30
67050;DHT22;53955;52.442;13.284;2023-05-10T11:23:23;23.70;18.00
67050;DHT22;53955;52.442;13.284;2023-05-10T11:25:49;23.80;18.00
67050;DHT22;53955;52.442;13.284;2023-05-10T11:28:17;23.80;18.20
67050;DHT22;53955;52.442;13.284;2023-05-10T11:30:44;23.80;17.80
67050;DHT22;53955;52.442;13.284;2023-05-10T11:33:15;23.50;18.80
67050;DHT22;53955;52.442;13.284;2023-05-10T11:35:43;23.70;20.00
67050;DHT22;53955;52.442;13.284;2023-05-10T11:38:12;24.10;20.10
67050;DHT22;53955;52.442;13.284;2023-05-10T11:40:39;24.10;19.60
67050;DHT22;53955;52.442;13.284;2023-05-10T11:43:08;24.30;17.90
67050;DHT22;53955;52.442;13.284;2023-05-10T11:45:35;24.30;16.10
67050;DHT22;53955;52.442;13.284;2023-05-10T11:48:02;24.20;17.00
67050;DHT22;53955;52.442;13.284;2023-05-10T11:50:29;24.20;16.50
67050;DHT22;53955;52.442;13.284;2023-05-10T11:52:56;24.10;17.60
67050;DHT22;53955;52.442;13.284;2023-05-10T11:55:25;24.20;17.70
67050;DHT22;53955;52.442;13.284;2023-05-10T11:57:52;24.40;17.40
67050;DHT22;53955;52.442;13.284;2023-05-10T12:00:19;24.20;17.00
67050;DHT22;53955;52.442;13.284;2023-05-10T12:02:46;24.00;16.70
67050;DHT22;53955;52.442;13.284;2023-05-10T12:05:13;24.20;17.50
67050;DHT22;53955;52.442;13.284;2023-05-10T12:07:39;24.30;17.40
67050;DHT22;53955;52.442;13.284;2023-05-10T12:10:07;24.50;17.70
67050;DHT22;53955;52.442;13.284;2023-05-10T12:12:40;24.30;15.80
67050;DHT22;53955;52.442;13.284;2023-05-10T12:15:11;24.40;18.60
67050;DHT22;53955;52.442;13.284;2023-05-10T12:17:38;24.70;16.40
67050;DHT22;53955;52.442;13.284;2023-05-10T12:20:19;24.70;16.30
67050;DHT22;53955;52.442;13.284;2023-05-10T12:22:48;24.90;16.10
67050;DHT22;53955;52.442;13.284;2023-05-10T12:25:15;24.90;15.00
67050;DHT22;53955;52.442;13.284;2023-05-10T12:27:50;25.00;16.20
67050;DHT22;53955;52.442;13.284;2023-05-10T12:30:21;24.90;15.80
67050;DHT22;53955;52.442;13.284;2023-05-10T12:32:48;24.70;15.20
67050;DHT22;53955;52.442;13.284;2023-05-10T12:35:15;24.70;15.60
67050;DHT22;53955;52.442;13.284;2023-05-10T12:37:42;24.70;14.60
67050;DHT22;53955;52.442;13.284;2023-05-10T12:40:10;24.50;15.30
67050;DHT22;53955;52.442;13.284;2023-05-10T12:42:38;24.60;15.50
67050;DHT22;53955;52.442;13.284;2023-05-10T12:45:08;24.50;15.60
67050;DHT22;53955;52.442;13.284;2023-05-10T12:47:34;24.50;15.10
67050;DHT22;53955;52.442;13.284;2023-05-10T12:50:02;24.70;15.50
67050;DHT22;53955;52.442;13.284;2023-05-10T12:52:29;24.70;15.20
67050;DHT22;53955;52.442;13.284;2023-05-10T12:54:57;24.80;15.90
67050;DHT22;53955;52.442;13.284;2023-05-10T12:57:23;25.00;16.10
67050;DHT22;53955;52.442;13.284;2023-05-10T12:59:50;25.10;15.50
67050;DHT22;53955;52.442;13.284;2023-05-10T13:02:18;25.20;15.20
67050;DHT22;53955;52.442;13.284;2023-05-10T13:04:46;25.30;16.10
67050;DHT22;53955;52.442;13.284;2023-05-10T13:07:13;25.10;15.00
67050;DHT22;53955;52.442;13.284;2023-05-10T13:09:39;24.90;16.00
67050;DHT22;53955;52.442;13.284;2023-05-10T13:12:06;24.70;16.20
67050;DHT22;53955;52.442;13.284;2023-05-10T13:14:33;24.50;15.30
67050;DHT22;53955;52.442;13.284;2023-05-10T13:16:59;24.60;15.20
67050;DHT22;53955;52.442;13.284;2023-05-10T13:19:27;24.70;17.50
67050;DHT22;53955;52.442;13.284;2023-05-10T13:21:54;25.00;15.10
67050;DHT22;53955;52.442;13.284;2023-05-10T13:24:20;25.00;14.40
67050;DHT22;53955;52.442;13.284;2023-05-10T13:26:47;25.00;15.10
67050;DHT22;53955;52.442;13.284;2023-05-10T13:29:14;25.00;14.60
67050;DHT22;53955;52.442;13.284;2023-05-10T13:31:43;25.00;14.40
67050;DHT22;53955;52.442;13.284;2023-05-10T13:34:09;25.10;14.00
67050;DHT22;53955;52.442;13.284;2023-05-10T13:36:37;25.10;14.60
67050;DHT22;53955;52.442;13.284;2023-05-10T13:39:04;25.30;14.30
67050;DHT22;53955;52.442;13.284;2023-05-10T13:41:31;25.30;15.60
67050;DHT22;53955;52.442;13.284;2023-05-10T13:43:57;25.40;13.90
67050;DHT22;53955;52.442;13.284;2023-05-10T13:46:24;25.30;14.40
67050;DHT22;53955;52.442;13.284;2023-05-10T13:48:51;25.40;15.90
67050;DHT22;53955;52.442;13.284;2023-05-10T13:51:17;25.40;14.60
67050;DHT22;53955;52.442;13.284;2023-05-10T13:53:45;25.40;15.10
67050;DHT22;53955;52.442;13.284;2023-05-10T13:56:12;25.10;16.10
67050;DHT22;53955;52.442;13.284;2023-05-10T13:58:39;25.30;15.60
67050;DHT22;53955;52.442;13.284;2023-05-10T14:01:06;25.10;14.00
67050;DHT22;53955;52.442;13.284;2023-05-10T14:03:33;25.00;14.40
67050;DHT22;53955;52.442;13.284;2023-05-10T14:06:00;25.20;15.20
67050;DHT22;53955;52.442;13.284;2023-05-10T14:08:26;25.30;13.50
67050;DHT22;53955;52.442;13.284;2023-05-10T14:10:54;25.00;14.00
67050;DHT22;53955;52.442;13.284;2023-05-10T14:13:23;25.10;13.10
67050;DHT22;53955;52.442;13.284;2023-05-10T14:15:49;25.20;14.10
67050;DHT22;53955;52.442;13.284;2023-05-10T14:18:16;25.20;13.10
67050;DHT22;53955;52.442;13.284;2023-05-10T14:20:43;25.10;14.40
67050;DHT22;53955;52.442;13.284;2023-05-10T14:23:09;25.10;15.00
67050;DHT22;53955;52.442;13.284;2023-05-10T14:25:36;25.00;13.60
67050;DHT22;53955;52.442;13.284;2023-05-10T14:28:04;25.00;14.90
67050;DHT22;53955;52.442;13.284;2023-05-10T14:30:32;24.90;14.00
67050;DHT22;53955;52.442;13.284;2023-05-10T14:32:59;24.90;12.50
67050;DHT22;53955;52.442;13.284;2023-05-10T14:35:26;24.70;12.20
67050;DHT22;53955;52.442;13.284;2023-05-10T14:37:53;24.60;13.30
67050;DHT22;53955;52.442;13.284;2023-05-10T14:40:20;24.60;13.90
67050;DHT22;53955;52.442;13.284;2023-05-10T14:42:47;24.20;14.10
67050;DHT22;53955;52.442;13.284;2023-05-10T14:45:14;24.30;14.00
67050;DHT22;53955;52.442;13.284;2023-05-10T14:47:41;24.20;14.30
67050;DHT22;53955;52.442;13.284;2023-05-10T14:50:08;24.30;14.30
67050;DHT22;53955;52.442;13.284;2023-05-10T14:52:35;24.40;14.20
67050;DHT22;53955;52.442;13.284;2023-05-10T14:55:01;24.40;14.10
67050;DHT22;53955;52.442;13.284;2023-05-10T14:57:28;24.50;14.10
67050;DHT22;53955;52.442;13.284;2023-05-10T14:59:55;24.60;14.40
67050;DHT22;53955;52.442;13.284;2023-05-10T15:02:23;24.60;14.60
67050;DHT22;53955;52.442;13.284;2023-05-10T15:04:50;24.60;15.00
67050;DHT22;53955;52.442;13.284;2023-05-10T15:07:17;24.70;13.20
67050;DHT22;53955;52.442;13.284;2023-05-10T15:09:43;24.70;13.80
67050;DHT22;53955;52.442;13.284;2023-05-10T15:12:10;24.90;14.60
67050;DHT22;53955;52.442;13.284;2023-05-10T15:14:37;24.90;13.80
67050;DHT22;53955;52.442;13.284;2023-05-10T15:17:06;24.90;14.20
67050;DHT22;53955;52.442;13.284;2023-05-10T15:19:34;25.10;15.10
67050;DHT22;53955;52.442;13.284;2023-05-10T15:22:01;25.10;15.40